createdAt,value
2022-11-19T00:01:26.426Z,4.43
2022-11-19T00:03:54.309Z,4.28
2022-11-19T00:06:23.793Z,3.75
2022-11-19T00:08:51.348Z,4.25
2022-11-19T00:11:41.413Z,3.38
2022-11-19T00:14:10.416Z,3.42
2022-11-19T00:16:37.679Z,3.65
2022-11-19T00:19:05.396Z,3.17
2022-11-19T00:21:32.833Z,3.95
2022-11-19T00:24:00.181Z,3.38
2022-11-19T00:26:27.730Z,4.00
2022-11-19T00:28:55.969Z,3.97
2022-11-19T00:31:23.989Z,3.58
2022-11-19T00:33:51.274Z,3.00
2022-11-19T00:36:18.541Z,3.58
2022-11-19T00:38:45.927Z,3.60
2022-11-19T00:41:13.203Z,4.15
2022-11-19T00:43:52.711Z,3.47
2022-11-19T00:46:29.639Z,2.90
2022-11-19T00:48:59.161Z,3.70
2022-11-19T00:51:29.231Z,3.33
2022-11-19T00:53:57.436Z,4.55
2022-11-19T00:56:27.568Z,3.92
2022-11-19T00:58:55.545Z,4.22
2022-11-19T01:01:25.002Z,4.03
2022-11-19T01:03:52.914Z,3.50
2022-11-19T01:06:22.317Z,2.88
2022-11-19T01:08:51.437Z,3.67
2022-11-19T01:11:21.338Z,3.40
2022-11-19T01:13:49.717Z,3.17
2022-11-19T01:16:20.046Z,3.67
2022-11-19T01:18:49.168Z,3.88
2022-11-19T01:21:18.476Z,3.58
2022-11-19T01:23:46.199Z,3.10
2022-11-19T01:26:14.476Z,4.93
2022-11-19T01:28:42.526Z,3.80
2022-11-19T01:31:13.327Z,3.30
2022-11-19T01:33:40.819Z,4.75
2022-11-19T01:36:15.225Z,2.42
2022-11-19T01:38:42.700Z,3.83
2022-11-19T01:41:10.882Z,3.30
2022-11-19T01:43:50.638Z,3.85
2022-11-19T01:46:23.654Z,3.85
2022-11-19T01:49:10.494Z,3.28
2022-11-19T01:51:43.705Z,2.78
2022-11-19T01:54:31.187Z,4.15
2022-11-19T01:57:03.414Z,3.88
2022-11-19T01:59:32.121Z,3.67
2022-11-19T02:02:00.200Z,3.33
2022-11-19T02:04:28.802Z,3.45
2022-11-19T02:06:57.075Z,3.20
2022-11-19T02:09:26.774Z,3.55
2022-11-19T02:11:59.889Z,4.03
2022-11-19T02:14:51.897Z,3.70
2022-11-19T02:17:57.563Z,3.95
2022-11-19T02:20:24.776Z,3.80
2022-11-19T02:22:51.967Z,3.15
2022-11-19T02:25:31.186Z,3.22
2022-11-19T02:28:10.415Z,5.07
2022-11-19T02:30:42.405Z,2.85
2022-11-19T02:33:24.092Z,3.00
2022-11-19T02:36:23.574Z,3.10
2022-11-19T02:39:03.820Z,3.38
2022-11-19T02:41:37.830Z,3.80
2022-11-19T02:44:35.610Z,3.65
2022-11-19T02:47:06.773Z,3.42
2022-11-19T02:49:39.564Z,3.30
2022-11-19T02:52:15.598Z,3.42
2022-11-19T02:54:43.630Z,3.28
2022-11-19T02:57:12.943Z,5.00
2022-11-19T03:00:15.166Z,3.67
2022-11-19T03:03:06.084Z,3.28
2022-11-19T03:05:37.829Z,3.28
2022-11-19T03:08:05.479Z,3.15
2022-11-19T03:10:50.277Z,3.47
2022-11-19T03:13:52.624Z,3.55
2022-11-19T03:16:42.341Z,2.92
2022-11-19T03:19:27.644Z,3.20
2022-11-19T03:22:09.903Z,3.78
2022-11-19T03:24:45.397Z,3.40
2022-11-19T03:27:18.606Z,3.67
2022-11-19T03:29:48.910Z,3.60
2022-11-19T03:32:22.452Z,3.20
2022-11-19T03:34:57.850Z,3.50
2022-11-19T03:37:29.215Z,2.97
2022-11-19T03:40:00.031Z,3.80
2022-11-19T03:42:27.825Z,3.78
2022-11-19T03:45:01.701Z,3.60
2022-11-19T03:47:36.704Z,3.78
2022-11-19T03:50:25.284Z,3.35
2022-11-19T03:52:52.675Z,3.38
2022-11-19T03:55:24.878Z,3.20
2022-11-19T03:57:52.388Z,3.50
2022-11-19T04:00:19.663Z,3.58
2022-11-19T04:02:46.943Z,3.95
2022-11-19T04:05:14.622Z,3.78
2022-11-19T04:07:41.902Z,4.68
2022-11-19T04:10:09.607Z,4.63
2022-11-19T04:12:36.948Z,3.20
2022-11-19T04:15:04.680Z,4.00
2022-11-19T04:17:31.920Z,3.15
2022-11-19T04:19:59.205Z,3.92
2022-11-19T04:22:26.458Z,4.25
2022-11-19T04:24:57.854Z,3.90
2022-11-19T04:27:29.838Z,3.00
2022-11-19T04:29:57.214Z,2.95
2022-11-19T04:32:24.519Z,3.03
2022-11-19T04:34:51.756Z,3.47
2022-11-19T04:37:19.092Z,3.05
2022-11-19T04:39:46.340Z,3.00
2022-11-19T04:42:13.635Z,3.28
2022-11-19T04:44:41.419Z,3.15
2022-11-19T04:47:08.665Z,3.95
2022-11-19T04:49:35.942Z,3.85
2022-11-19T04:52:03.443Z,3.70
2022-11-19T04:54:30.716Z,3.10
2022-11-19T04:56:57.975Z,3.28
2022-11-19T04:59:25.276Z,2.90
2022-11-19T05:01:52.826Z,3.22
2022-11-19T05:04:20.191Z,3.35
2022-11-19T05:06:47.580Z,3.55
2022-11-19T05:09:14.851Z,3.00
2022-11-19T05:11:42.149Z,3.22
2022-11-19T05:14:09.494Z,2.92
2022-11-19T05:16:36.741Z,4.15
2022-11-19T05:19:03.989Z,3.65
2022-11-19T05:21:31.339Z,4.53
2022-11-19T05:23:58.611Z,3.50
2022-11-19T05:26:25.928Z,3.17
2022-11-19T05:28:53.148Z,3.60
2022-11-19T05:31:20.518Z,3.30
2022-11-19T05:33:47.827Z,2.47
2022-11-19T05:36:15.108Z,3.15
2022-11-19T05:38:42.569Z,3.58
2022-11-19T05:41:09.877Z,3.22
2022-11-19T05:43:37.192Z,2.38
2022-11-19T05:46:04.527Z,3.22
2022-11-19T05:48:31.822Z,3.75
2022-11-19T05:50:59.092Z,3.00
2022-11-19T05:53:27.063Z,3.50
2022-11-19T05:55:54.337Z,3.88
2022-11-19T05:58:21.599Z,3.13
2022-11-19T06:00:48.906Z,2.95
2022-11-19T06:03:16.155Z,2.65
2022-11-19T06:05:43.422Z,2.95
2022-11-19T06:08:10.731Z,3.90
2022-11-19T06:10:38.202Z,3.03
2022-11-19T06:13:05.464Z,4.78
2022-11-19T06:15:32.767Z,3.22
2022-11-19T06:18:00.147Z,2.55
2022-11-19T06:20:27.441Z,2.88
2022-11-19T06:22:54.712Z,3.00
2022-11-19T06:25:21.984Z,2.70
2022-11-19T06:27:49.363Z,2.97
2022-11-19T06:30:17.170Z,3.15
2022-11-19T06:32:44.451Z,2.42
2022-11-19T06:35:14.103Z,4.28
2022-11-19T06:37:41.653Z,2.90
2022-11-19T06:40:09.519Z,3.22
2022-11-19T06:42:36.835Z,2.28
2022-11-19T06:45:11.320Z,4.30
2022-11-19T06:47:39.808Z,2.67
2022-11-19T06:50:09.081Z,3.50
2022-11-19T06:52:36.866Z,3.22
2022-11-19T06:55:04.706Z,3.35
2022-11-19T06:57:32.010Z,3.38
2022-11-19T06:59:59.268Z,2.78
2022-11-19T07:02:26.844Z,3.75
2022-11-19T07:04:54.150Z,3.22
2022-11-19T07:07:21.646Z,2.83
2022-11-19T07:09:49.091Z,3.63
2022-11-19T07:12:16.350Z,3.85
2022-11-19T07:14:43.617Z,4.07
2022-11-19T07:17:10.971Z,3.97
2022-11-19T07:19:38.258Z,3.22
2022-11-19T07:22:05.539Z,3.63
2022-11-19T07:24:32.880Z,3.13
2022-11-19T07:27:00.140Z,3.10
2022-11-19T07:29:27.538Z,3.20
2022-11-19T07:31:54.855Z,3.00
2022-11-19T07:34:22.131Z,2.90
2022-11-19T07:36:50.186Z,2.72
2022-11-19T07:39:18.415Z,4.18
2022-11-19T07:42:04.697Z,3.33
2022-11-19T07:44:32.009Z,3.77
2022-11-19T07:46:59.643Z,4.18
2022-11-19T07:49:27.015Z,2.85
2022-11-19T07:51:55.263Z,3.47
2022-11-19T07:54:22.502Z,2.42
2022-11-19T07:56:49.904Z,4.03
2022-11-19T07:59:17.549Z,3.17
2022-11-19T08:01:45.255Z,3.42
2022-11-19T08:04:12.778Z,2.97
2022-11-19T08:06:40.136Z,3.38
2022-11-19T08:09:07.444Z,2.28
2022-11-19T08:11:34.768Z,3.25
2022-11-19T08:14:02.319Z,3.15
2022-11-19T08:16:48.101Z,3.20
2022-11-19T08:19:16.960Z,4.65
2022-11-19T08:21:47.065Z,2.70
2022-11-19T08:24:16.568Z,3.60
2022-11-19T08:26:44.519Z,3.72
2022-11-19T08:29:16.547Z,2.50
2022-11-19T08:31:45.987Z,2.72
2022-11-19T08:34:13.783Z,3.60
2022-11-19T08:36:41.411Z,2.88
2022-11-19T08:39:08.698Z,3.28
2022-11-19T08:41:54.897Z,5.30
2022-11-19T08:44:22.866Z,2.83
2022-11-19T08:46:50.737Z,3.85
2022-11-19T08:49:18.269Z,3.08
2022-11-19T08:51:45.566Z,3.70
2022-11-19T08:54:13.337Z,2.90
2022-11-19T08:56:40.689Z,3.63
2022-11-19T08:59:08.396Z,3.42
2022-11-19T09:01:35.873Z,3.42
2022-11-19T09:04:03.353Z,3.42
2022-11-19T09:06:30.898Z,2.85
2022-11-19T09:08:58.466Z,3.70
2022-11-19T09:11:25.794Z,3.00
2022-11-19T09:13:53.150Z,3.28
2022-11-19T09:16:20.442Z,3.78
2022-11-19T09:18:47.745Z,3.65
2022-11-19T09:21:15.234Z,2.92
2022-11-19T09:23:42.755Z,3.35
2022-11-19T09:26:13.511Z,3.10
2022-11-19T09:28:41.366Z,2.85
2022-11-19T09:31:14.876Z,5.40
2022-11-19T09:33:46.216Z,3.50
2022-11-19T09:36:14.071Z,3.70
2022-11-19T09:38:41.704Z,3.50
2022-11-19T09:41:17.818Z,3.33
2022-11-19T09:44:11.075Z,3.50
2022-11-19T09:47:03.639Z,3.08
2022-11-19T09:49:47.313Z,3.10
2022-11-19T09:52:19.861Z,3.25
2022-11-19T09:54:50.674Z,4.25
2022-11-19T09:57:44.450Z,3.22
2022-11-19T10:00:21.056Z,3.90
2022-11-19T10:02:49.003Z,3.78
2022-11-19T10:05:28.291Z,4.10
2022-11-19T10:08:21.619Z,2.83
2022-11-19T10:11:16.520Z,2.88
2022-11-19T10:13:49.593Z,3.92
2022-11-19T10:16:34.648Z,5.25
2022-11-19T10:19:26.613Z,3.20
2022-11-19T10:22:01.419Z,4.18
2022-11-19T10:24:31.776Z,3.47
2022-11-19T10:27:08.297Z,2.90
2022-11-19T10:29:39.078Z,3.20
2022-11-19T10:32:23.734Z,3.40
2022-11-19T10:34:54.047Z,3.97
2022-11-19T10:37:23.639Z,5.00
2022-11-19T10:39:59.210Z,3.40
2022-11-19T10:42:36.756Z,5.13
2022-11-19T10:45:25.457Z,3.92
2022-11-19T10:48:21.200Z,3.53
2022-11-19T10:50:48.957Z,3.05
2022-11-19T10:53:24.942Z,2.83
2022-11-19T10:55:55.399Z,4.03
2022-11-19T10:58:58.520Z,2.92
2022-11-19T11:01:33.565Z,3.42
2022-11-19T11:04:21.163Z,3.90
2022-11-19T11:06:56.711Z,3.35
2022-11-19T11:09:30.870Z,4.17
2022-11-19T11:12:37.455Z,4.22
2022-11-19T11:15:24.763Z,4.07
2022-11-19T11:18:06.368Z,4.25
2022-11-19T11:20:33.891Z,4.07
2022-11-19T11:23:09.845Z,4.43
2022-11-19T11:25:39.381Z,3.75
2022-11-19T11:28:13.059Z,2.97
2022-11-19T11:31:10.731Z,3.88
2022-11-19T11:33:53.900Z,3.88
2022-11-19T11:36:27.485Z,4.38
2022-11-19T11:38:57.540Z,3.60
2022-11-19T11:42:04.712Z,3.88
2022-11-19T11:44:32.272Z,3.85
2022-11-19T11:47:20.664Z,4.15
2022-11-19T11:49:56.754Z,3.97
2022-11-19T11:52:42.437Z,5.65
2022-11-19T11:55:24.729Z,4.50
2022-11-19T11:57:55.731Z,4.18
2022-11-19T12:00:44.664Z,4.28
2022-11-19T12:03:14.461Z,3.60
2022-11-19T12:06:12.747Z,3.30
2022-11-19T12:09:02.636Z,3.00
2022-11-19T12:12:11.382Z,3.00
2022-11-19T12:14:50.921Z,3.38
2022-11-19T12:17:43.071Z,4.00
2022-11-19T12:20:29.358Z,3.20
2022-11-19T12:23:31.752Z,3.53
2022-11-19T12:26:13.241Z,3.97
2022-11-19T12:28:46.780Z,3.30
2022-11-19T12:31:30.222Z,3.75
2022-11-19T12:34:12.504Z,4.03
2022-11-19T12:36:52.289Z,3.47
2022-11-19T12:39:19.697Z,3.05
2022-11-19T12:42:02.743Z,3.47
2022-11-19T12:44:44.612Z,4.10
2022-11-19T12:47:42.076Z,2.95
2022-11-19T12:50:31.948Z,3.80
2022-11-19T12:53:14.679Z,3.40
2022-11-19T12:56:03.133Z,3.70
2022-11-19T12:59:22.207Z,3.83
2022-11-19T13:01:52.418Z,3.47
2022-11-19T13:04:43.382Z,3.40
2022-11-19T13:07:27.272Z,3.67
2022-11-19T13:10:03.596Z,3.65
2022-11-19T13:12:45.704Z,3.25
2022-11-19T13:15:21.989Z,3.25
2022-11-19T13:17:55.122Z,3.83
2022-11-19T13:20:37.591Z,3.83
2022-11-19T13:23:06.719Z,4.03
2022-11-19T13:25:42.349Z,3.40
2022-11-19T13:28:31.556Z,4.40
2022-11-19T13:31:03.778Z,3.33
2022-11-19T13:33:51.268Z,4.90
2022-11-19T13:36:34.775Z,3.13
2022-11-19T13:39:23.490Z,3.78
2022-11-19T13:42:12.619Z,4.18
2022-11-19T13:44:41.652Z,4.53
2022-11-19T13:47:20.345Z,3.08
2022-11-19T13:49:56.521Z,5.20
2022-11-19T13:52:35.611Z,3.25
2022-11-19T13:55:04.220Z,3.15
2022-11-19T13:57:39.289Z,3.85
2022-11-19T14:00:21.191Z,3.63
2022-11-19T14:02:54.397Z,3.80
2022-11-19T14:05:39.581Z,2.58
2022-11-19T14:08:22.944Z,3.13
2022-11-19T14:11:08.754Z,2.55
2022-11-19T14:13:51.394Z,2.42
2022-11-19T14:17:11.359Z,3.72
2022-11-19T14:20:13.257Z,2.78
2022-11-19T14:23:13.448Z,2.30
2022-11-19T14:26:03.939Z,3.85
2022-11-19T14:28:48.566Z,3.53
2022-11-19T14:31:17.374Z,2.78
2022-11-19T14:33:47.447Z,3.20
2022-11-19T14:36:43.848Z,2.80
2022-11-19T14:39:20.146Z,2.97
2022-11-19T14:42:07.678Z,2.55
2022-11-19T14:44:36.114Z,3.05
2022-11-19T14:47:22.349Z,2.45
2022-11-19T14:49:56.291Z,2.30
2022-11-19T14:52:36.577Z,2.70
2022-11-19T14:55:17.215Z,2.88
2022-11-19T14:57:53.069Z,3.10
2022-11-19T15:00:20.364Z,2.47
2022-11-19T15:02:51.213Z,2.45
2022-11-19T15:05:29.180Z,2.35
2022-11-19T15:08:18.096Z,3.42
2022-11-19T15:11:06.989Z,3.42
2022-11-19T15:13:35.811Z,3.85
2022-11-19T15:16:06.912Z,2.38
2022-11-19T15:18:40.286Z,2.58
2022-11-19T15:21:26.100Z,3.15
2022-11-19T15:23:59.558Z,3.15
2022-11-19T15:26:55.367Z,2.90
2022-11-19T15:29:44.857Z,3.58
2022-11-19T15:32:36.125Z,3.63
2022-11-19T15:35:38.299Z,3.38
2022-11-19T15:38:35.910Z,3.85
2022-11-19T15:41:06.167Z,3.10
2022-11-19T15:43:42.344Z,2.58
2022-11-19T15:46:20.121Z,2.95
2022-11-19T15:49:06.255Z,3.50
2022-11-19T15:51:49.855Z,2.80
2022-11-19T15:54:17.124Z,3.20
2022-11-19T15:56:50.266Z,3.47
2022-11-19T15:59:19.929Z,3.25
2022-11-19T16:02:01.096Z,3.47
2022-11-19T16:04:36.632Z,2.78
2022-11-19T16:07:07.816Z,4.83
2022-11-19T16:09:35.791Z,4.85
2022-11-19T16:12:22.143Z,4.82
2022-11-19T16:15:11.705Z,5.75
2022-11-19T16:17:47.625Z,4.55
2022-11-19T16:20:20.786Z,5.50
2022-11-19T16:23:04.132Z,6.95
2022-11-19T16:25:35.723Z,6.57
2022-11-19T16:28:15.249Z,8.10
2022-11-19T16:30:50.009Z,7.57
2022-11-19T16:33:22.202Z,3.90
2022-11-19T16:35:53.302Z,4.18
2022-11-19T16:38:27.984Z,4.22
2022-11-19T16:41:15.511Z,6.13
2022-11-19T16:43:44.908Z,8.75
2022-11-19T16:46:18.675Z,7.78
2022-11-19T16:48:48.663Z,5.13
2022-11-19T16:51:32.756Z,4.65
2022-11-19T16:54:00.527Z,4.20
2022-11-19T16:56:34.925Z,4.05
2022-11-19T16:59:04.552Z,4.43
2022-11-19T17:01:32.985Z,4.57
2022-11-19T17:04:05.112Z,3.80
2022-11-19T17:06:36.890Z,4.45
2022-11-19T17:09:05.960Z,4.18
2022-11-19T17:12:10.077Z,4.05
2022-11-19T17:14:40.387Z,4.10
2022-11-19T17:17:23.913Z,3.83
2022-11-19T17:19:51.171Z,4.80
2022-11-19T17:22:23.761Z,4.55
2022-11-19T17:24:51.511Z,4.00
2022-11-19T17:27:29.508Z,3.67
2022-11-19T17:30:19.022Z,4.22
2022-11-19T17:32:49.442Z,4.00
2022-11-19T17:35:46.153Z,3.75
2022-11-19T17:38:25.039Z,5.00
2022-11-19T17:40:56.511Z,4.32
2022-11-19T17:43:53.269Z,4.82
2022-11-19T17:46:21.708Z,4.93
2022-11-19T17:48:50.390Z,4.32
2022-11-19T17:51:22.709Z,4.30
2022-11-19T17:53:52.084Z,4.35
2022-11-19T17:56:27.014Z,4.65
2022-11-19T17:58:54.879Z,4.28
2022-11-19T18:01:23.086Z,3.75
2022-11-19T18:03:50.560Z,3.47
2022-11-19T18:06:18.810Z,4.74
2022-11-19T18:08:46.403Z,4.50
2022-11-19T18:11:25.004Z,4.43
2022-11-19T18:13:54.547Z,4.80
2022-11-19T18:16:24.738Z,4.65
2022-11-19T18:18:52.446Z,4.60
2022-11-19T18:21:21.843Z,4.95
2022-11-19T18:23:51.528Z,4.78
2022-11-19T18:26:24.482Z,5.15
2022-11-19T18:28:51.985Z,7.15
2022-11-19T18:31:26.256Z,6.68
2022-11-19T18:33:54.298Z,7.43
2022-11-19T18:36:22.503Z,8.50
2022-11-19T18:38:49.971Z,7.75
2022-11-19T18:41:20.817Z,7.13
2022-11-19T18:44:06.837Z,8.15
2022-11-19T18:46:34.311Z,7.13
2022-11-19T18:49:01.644Z,7.18
2022-11-19T18:51:31.366Z,6.75
2022-11-19T18:53:58.808Z,6.80
2022-11-19T18:56:26.294Z,7.00
2022-11-19T18:58:53.745Z,7.63
2022-11-19T19:01:24.042Z,7.15
2022-11-19T19:03:52.489Z,7.78
2022-11-19T19:06:20.880Z,8.73
2022-11-19T19:08:49.531Z,8.07
2022-11-19T19:11:35.955Z,8.15
2022-11-19T19:14:04.248Z,9.25
2022-11-19T19:16:32.349Z,7.22
2022-11-19T19:19:00.642Z,8.52
2022-11-19T19:21:28.945Z,7.70
2022-11-19T19:23:56.513Z,8.55
2022-11-19T19:26:24.494Z,8.43
2022-11-19T19:28:54.299Z,8.68
2022-11-19T19:31:22.788Z,9.68
2022-11-19T19:33:50.944Z,9.80
2022-11-19T19:36:19.747Z,9.77
2022-11-19T19:38:47.282Z,10.25
2022-11-19T19:41:23.415Z,9.80
2022-11-19T19:43:51.977Z,9.85
2022-11-19T19:46:21.555Z,9.10
2022-11-19T19:48:54.499Z,9.70
2022-11-19T19:51:24.840Z,9.50
2022-11-19T19:53:52.936Z,10.32
2022-11-19T19:56:21.319Z,10.82
2022-11-19T19:58:50.791Z,9.90
2022-11-19T20:01:24.607Z,10.48
2022-11-19T20:03:54.657Z,10.57
2022-11-19T20:06:23.742Z,9.88
2022-11-19T20:08:51.237Z,9.35
2022-11-19T20:11:21.504Z,10.10
2022-11-19T20:13:48.948Z,10.82
2022-11-19T20:16:18.487Z,10.25
2022-11-19T20:18:47.646Z,10.20
2022-11-19T20:21:17.351Z,10.13
2022-11-19T20:23:45.650Z,10.15
2022-11-19T20:26:16.008Z,11.57
2022-11-19T20:28:44.274Z,10.80
2022-11-19T20:31:17.486Z,11.32
2022-11-19T20:33:46.272Z,10.05
2022-11-19T20:36:15.531Z,11.90
2022-11-19T20:38:46.026Z,10.32
2022-11-19T20:41:33.850Z,10.02
2022-11-19T20:44:22.532Z,8.68
2022-11-19T20:46:58.954Z,8.70
2022-11-19T20:49:28.514Z,9.30
2022-11-19T20:51:56.740Z,8.93
2022-11-19T20:54:24.731Z,9.90
2022-11-19T20:56:53.636Z,9.30
2022-11-19T20:59:22.365Z,9.73
2022-11-19T21:01:50.666Z,9.70
2022-11-19T21:04:19.426Z,9.45
2022-11-19T21:06:46.948Z,9.38
2022-11-19T21:09:15.900Z,10.30
2022-11-19T21:11:44.085Z,9.30
2022-11-19T21:14:12.194Z,9.95
2022-11-19T21:16:39.624Z,9.80
2022-11-19T21:19:06.981Z,8.95
2022-11-19T21:21:35.380Z,9.50
2022-11-19T21:24:02.649Z,8.25
2022-11-19T21:26:30.117Z,10.88
2022-11-19T21:28:59.313Z,10.73
2022-11-19T21:31:46.393Z,10.82
2022-11-19T21:34:20.451Z,10.35
2022-11-19T21:36:48.631Z,10.07
2022-11-19T21:39:17.490Z,11.00
2022-11-19T21:41:44.999Z,11.52
2022-11-19T21:44:16.521Z,12.10
2022-11-19T21:46:45.550Z,11.10
2022-11-19T21:49:12.793Z,11.68
2022-11-19T21:51:39.999Z,10.38
2022-11-19T21:54:07.427Z,11.18
2022-11-19T21:56:38.485Z,10.15
2022-11-19T21:59:07.408Z,11.70
2022-11-19T22:01:35.009Z,11.93
2022-11-19T22:04:02.611Z,12.57
2022-11-19T22:06:30.997Z,12.82
2022-11-19T22:08:58.298Z,13.38
2022-11-19T22:11:32.004Z,13.40
2022-11-19T22:14:02.188Z,12.68
2022-11-19T22:16:31.156Z,12.95
2022-11-19T22:18:58.600Z,12.43
2022-11-19T22:21:27.167Z,11.13
2022-11-19T22:23:54.704Z,14.23
2022-11-19T22:26:22.050Z,14.07
2022-11-19T22:28:49.337Z,13.88
2022-11-19T22:31:16.684Z,12.48
2022-11-19T22:33:44.243Z,12.35
2022-11-19T22:36:11.957Z,13.35
2022-11-19T22:38:39.675Z,12.85
2022-11-19T22:41:09.896Z,13.43
2022-11-19T22:43:38.462Z,11.93
2022-11-19T22:46:06.873Z,13.68
2022-11-19T22:48:34.552Z,13.68
2022-11-19T22:51:23.247Z,13.10
2022-11-19T22:53:52.518Z,12.52
2022-11-19T22:56:26.807Z,13.05
2022-11-19T22:58:54.632Z,13.40
2022-11-19T23:01:35.310Z,12.55
2022-11-19T23:04:08.202Z,12.65
2022-11-19T23:06:37.649Z,13.30
2022-11-19T23:09:05.600Z,13.40
2022-11-19T23:11:51.539Z,14.52
2022-11-19T23:14:20.596Z,13.60
2022-11-19T23:16:48.192Z,13.82
2022-11-19T23:19:19.078Z,12.48
2022-11-19T23:21:47.702Z,13.85
2022-11-19T23:24:15.204Z,13.80
2022-11-19T23:26:42.677Z,13.45
2022-11-19T23:29:10.157Z,12.55
2022-11-19T23:31:39.318Z,13.15
2022-11-19T23:34:07.314Z,12.27
2022-11-19T23:36:37.824Z,13.07
2022-11-19T23:39:06.044Z,14.85
2022-11-19T23:41:34.078Z,15.63
2022-11-19T23:44:02.118Z,15.20
2022-11-19T23:46:31.402Z,14.52
2022-11-19T23:48:59.740Z,13.75
2022-11-19T23:51:29.792Z,13.82
2022-11-19T23:53:57.518Z,12.02
2022-11-19T23:56:26.244Z,11.35
2022-11-19T23:58:53.634Z,12.65
